Aeneas, Washington
Current Conditions -  °F | °C
As of 9:53 PM on Sunday 23 Nov 2014 (Local Time) from KOMK Reporting Station
Clear Clear  
Wind Chill: 17°   Ceiling: Unl
Heat Index: 24°   Visibility: 10mi
Dew Point: 22°   Wind: 6mph
Humidity: 91%   Direction: 300°WNW
Pressure: 30.16"   Gusts: NA
Location:  48.6708°N, 119.278°W
Report Text: KOMK 240553Z AUTO 30005KT 10SM CLR M04/M06 A3016 RMK AO2 SLP230 I1000 I6000 T10441056 10033 21044 51029
Loading
Personal Weather Stations






























Interactive Weather Map New forecast layout! Learn more

10-Day Weather Forecast

Advertisements
Track Severe Weather on mobile